createdAt,value
2023-03-20T00:02:22.183Z,30.47
2023-03-20T00:04:52.646Z,30.86
2023-03-20T00:07:23.398Z,30.12
2023-03-20T00:09:53.694Z,30.26
2023-03-20T00:12:30.314Z,30.85
2023-03-20T00:15:05.894Z,30.27
2023-03-20T00:17:36.282Z,30.55
2023-03-20T00:20:06.988Z,30.30
2023-03-20T00:22:37.528Z,30.03
2023-03-20T00:25:08.368Z,30.29
2023-03-20T00:27:38.605Z,30.27
2023-03-20T00:30:25.712Z,29.95
2023-03-20T00:32:57.143Z,30.77
2023-03-20T00:35:31.326Z,30.80
2023-03-20T00:38:01.772Z,30.85
2023-03-20T00:40:33.873Z,30.44
2023-03-20T00:43:06.304Z,30.92
2023-03-20T00:45:39.835Z,30.75
2023-03-20T00:48:18.049Z,30.14
2023-03-20T00:50:49.193Z,30.56
2023-03-20T00:53:19.632Z,30.65
2023-03-20T00:55:50.672Z,30.83
2023-03-20T00:58:21.705Z,30.50
2023-03-20T01:00:52.147Z,30.20
2023-03-20T01:03:25.565Z,30.06
2023-03-20T01:05:55.928Z,29.65
2023-03-20T01:08:28.194Z,30.44
2023-03-20T01:11:01.234Z,30.20
2023-03-20T01:13:33.668Z,30.94
2023-03-20T01:16:04.055Z,30.21
2023-03-20T01:18:35.708Z,30.43
2023-03-20T01:21:06.183Z,30.41
2023-03-20T01:23:37.098Z,30.66
2023-03-20T01:26:26.760Z,30.23
2023-03-20T01:28:57.426Z,30.53
2023-03-20T01:31:27.961Z,29.65
2023-03-20T01:33:58.768Z,30.38
2023-03-20T01:36:29.562Z,29.83
2023-03-20T01:39:01.175Z,30.59
2023-03-20T01:41:33.149Z,30.34
2023-03-20T01:44:20.023Z,29.93
2023-03-20T01:46:52.269Z,30.57
2023-03-20T01:49:23.421Z,30.16
2023-03-20T01:51:55.426Z,30.38
2023-03-20T01:54:40.454Z,29.96
2023-03-20T01:57:14.320Z,30.30
2023-03-20T01:59:53.507Z,29.94
2023-03-20T02:02:28.680Z,29.79
2023-03-20T02:05:05.766Z,29.89
2023-03-20T02:07:38.896Z,29.67
2023-03-20T02:10:15.639Z,29.60
2023-03-20T02:12:53.962Z,29.86
2023-03-20T02:15:34.226Z,29.67
2023-03-20T02:18:12.537Z,29.88
2023-03-20T02:21:08.826Z,29.96
2023-03-20T02:24:17.562Z,29.73
2023-03-20T02:27:19.662Z,29.58
2023-03-20T02:30:14.069Z,28.96
2023-03-20T02:32:51.393Z,30.09
2023-03-20T02:35:40.458Z,29.79
2023-03-20T02:38:32.051Z,29.63
2023-03-20T02:41:12.830Z,29.34
2023-03-20T02:44:14.849Z,29.53
2023-03-20T02:47:02.930Z,28.99
2023-03-20T02:50:05.406Z,29.44
2023-03-20T02:53:11.212Z,29.20
2023-03-20T02:56:04.629Z,29.35
2023-03-20T02:59:25.170Z,29.01
2023-03-20T03:02:14.054Z,29.08
2023-03-20T03:04:54.640Z,28.76
2023-03-20T03:07:29.849Z,29.08
2023-03-20T03:10:14.531Z,29.14
2023-03-20T03:12:50.744Z,29.42
2023-03-20T03:15:31.000Z,29.17
2023-03-20T03:18:05.002Z,29.00
2023-03-20T03:20:39.549Z,29.69
2023-03-20T03:23:16.328Z,28.83
2023-03-20T03:25:48.404Z,29.09
2023-03-20T03:28:27.808Z,29.04
2023-03-20T03:30:59.885Z,29.41
2023-03-20T03:33:35.051Z,29.60
2023-03-20T03:36:14.455Z,29.47
2023-03-20T03:39:00.410Z,29.00
2023-03-20T03:41:46.472Z,29.38
2023-03-20T03:44:25.763Z,29.44
2023-03-20T03:47:04.861Z,29.40
2023-03-20T03:49:51.074Z,29.70
2023-03-20T03:52:25.427Z,28.79
2023-03-20T03:55:02.788Z,29.04
2023-03-20T03:57:50.605Z,28.93
2023-03-20T04:00:27.088Z,29.29
2023-03-20T04:03:00.137Z,28.85
2023-03-20T04:05:34.944Z,28.81
2023-03-20T04:08:07.999Z,29.28
2023-03-20T04:10:38.430Z,28.61
2023-03-20T04:13:11.942Z,28.98
2023-03-20T04:15:42.562Z,28.54
2023-03-20T04:18:21.816Z,28.64
2023-03-20T04:20:53.943Z,29.07
2023-03-20T04:23:24.628Z,28.75
2023-03-20T04:25:55.399Z,28.44
2023-03-20T04:28:26.093Z,29.08
2023-03-20T04:31:14.321Z,28.54
2023-03-20T04:34:13.677Z,28.72
2023-03-20T04:36:58.819Z,29.03
2023-03-20T04:39:38.955Z,29.06
2023-03-20T04:42:10.075Z,29.15
2023-03-20T04:44:40.680Z,29.38
2023-03-20T04:47:11.141Z,29.18
2023-03-20T04:49:45.202Z,29.17
2023-03-20T04:52:15.878Z,28.77
2023-03-20T04:54:47.416Z,29.00
2023-03-20T04:57:18.653Z,29.19
2023-03-20T04:59:49.625Z,28.53
2023-03-20T05:02:20.693Z,29.27
2023-03-20T05:04:51.141Z,29.08
2023-03-20T05:07:23.094Z,28.94
2023-03-20T05:09:59.447Z,28.62
2023-03-20T05:12:31.570Z,28.66
2023-03-20T05:15:11.476Z,28.30
2023-03-20T05:17:42.280Z,28.66
2023-03-20T05:20:28.804Z,28.41
2023-03-20T05:23:06.441Z,28.52
2023-03-20T05:25:48.938Z,28.51
2023-03-20T05:28:53.181Z,28.55
2023-03-20T05:31:46.323Z,28.19
2023-03-20T05:34:37.151Z,28.18
2023-03-20T05:37:14.133Z,28.08
2023-03-20T05:39:44.546Z,27.98
2023-03-20T05:42:50.093Z,27.96
2023-03-20T05:45:52.243Z,28.15
2023-03-20T05:48:46.895Z,27.66
2023-03-20T05:51:52.673Z,27.57
2023-03-20T05:54:45.450Z,27.51
2023-03-20T05:57:42.401Z,27.45
2023-03-20T06:00:44.969Z,27.06
2023-03-20T06:03:47.001Z,27.13
2023-03-20T06:06:23.067Z,27.36
2023-03-20T06:08:54.787Z,26.94
2023-03-20T06:11:25.823Z,26.91
2023-03-20T06:13:57.323Z,27.33
2023-03-20T06:16:38.004Z,27.15
2023-03-20T06:19:08.585Z,27.41
2023-03-20T06:21:38.831Z,27.58
2023-03-20T06:24:14.690Z,27.15
2023-03-20T06:26:46.022Z,27.20
2023-03-20T06:29:17.144Z,27.35
2023-03-20T06:31:49.557Z,27.39
2023-03-20T06:34:29.218Z,28.00
2023-03-20T06:37:00.515Z,27.55
2023-03-20T06:39:31.739Z,27.72
2023-03-20T06:42:02.667Z,27.90
2023-03-20T06:44:33.338Z,27.77
2023-03-20T06:47:26.556Z,27.76
2023-03-20T06:49:56.905Z,27.74
2023-03-20T06:52:27.315Z,27.78
2023-03-20T06:55:18.620Z,27.83
2023-03-20T06:57:49.065Z,27.64
2023-03-20T07:00:23.164Z,27.58
2023-03-20T07:02:53.546Z,27.83
2023-03-20T07:05:25.245Z,27.71
2023-03-20T07:07:57.264Z,27.56
2023-03-20T07:10:29.970Z,27.35
2023-03-20T07:13:00.382Z,27.54
2023-03-20T07:15:31.627Z,27.28
2023-03-20T07:18:02.894Z,27.72
2023-03-20T07:20:33.425Z,27.60
2023-03-20T07:23:04.135Z,27.63
2023-03-20T07:25:42.893Z,27.51
2023-03-20T07:28:18.893Z,27.73
2023-03-20T07:30:55.149Z,27.61
2023-03-20T07:33:27.112Z,27.44
2023-03-20T07:35:57.625Z,27.73
2023-03-20T07:38:28.115Z,27.78
2023-03-20T07:41:08.775Z,27.44
2023-03-20T07:43:44.567Z,27.22
2023-03-20T07:46:24.144Z,27.07
2023-03-20T07:48:58.087Z,27.12
2023-03-20T07:51:28.442Z,27.53
2023-03-20T07:53:59.685Z,27.19
2023-03-20T07:56:30.078Z,27.22
2023-03-20T07:59:00.409Z,27.22
2023-03-20T08:01:30.815Z,27.24
2023-03-20T08:04:01.767Z,27.02
2023-03-20T08:06:32.774Z,27.39
2023-03-20T08:09:03.718Z,26.98
2023-03-20T08:11:34.962Z,27.37
2023-03-20T08:14:05.810Z,27.24
2023-03-20T08:16:36.322Z,26.68
2023-03-20T08:19:08.515Z,27.30
2023-03-20T08:21:38.960Z,27.05
2023-03-20T08:24:10.197Z,26.78
2023-03-20T08:26:40.544Z,27.20
2023-03-20T08:29:10.860Z,27.06
2023-03-20T08:31:42.501Z,26.95
2023-03-20T08:34:13.719Z,27.04
2023-03-20T08:36:43.936Z,26.81
2023-03-20T08:39:14.121Z,27.10
2023-03-20T08:41:47.210Z,26.96
2023-03-20T08:44:18.024Z,27.31
2023-03-20T08:46:49.096Z,27.25
2023-03-20T08:49:19.975Z,27.20
2023-03-20T08:51:50.361Z,27.15
2023-03-20T08:54:21.748Z,27.15
2023-03-20T08:56:52.593Z,26.98
2023-03-20T08:59:22.999Z,26.81
2023-03-20T09:01:53.432Z,26.77
2023-03-20T09:04:23.877Z,26.39
2023-03-20T09:06:54.287Z,26.52
2023-03-20T09:09:30.743Z,26.28
2023-03-20T09:12:02.143Z,25.45
2023-03-20T09:14:32.974Z,25.78
2023-03-20T09:17:04.185Z,25.55
2023-03-20T09:19:34.833Z,25.85
2023-03-20T09:22:05.577Z,25.65
2023-03-20T09:24:36.002Z,25.75
2023-03-20T09:27:06.479Z,25.68
2023-03-20T09:29:36.771Z,25.76
2023-03-20T09:32:07.296Z,25.75
2023-03-20T09:34:37.749Z,26.01
2023-03-20T09:37:08.316Z,25.98
2023-03-20T09:39:38.698Z,25.57
2023-03-20T09:42:28.861Z,25.69
2023-03-20T09:45:22.559Z,25.87
2023-03-20T09:48:02.972Z,25.47
2023-03-20T09:51:24.007Z,25.43
2023-03-20T09:54:21.544Z,25.75
2023-03-20T09:56:54.696Z,25.18
2023-03-20T09:59:27.710Z,25.56
2023-03-20T10:02:07.050Z,25.71
2023-03-20T10:04:38.566Z,25.28
2023-03-20T10:07:13.145Z,25.29
2023-03-20T10:09:44.686Z,25.07
2023-03-20T10:12:36.011Z,25.39
2023-03-20T10:15:16.798Z,25.02
2023-03-20T10:18:04.888Z,25.70
2023-03-20T10:20:50.943Z,25.75
2023-03-20T10:24:05.060Z,24.52
2023-03-20T10:26:39.610Z,25.16
2023-03-20T10:29:25.821Z,25.08
2023-03-20T10:31:58.958Z,24.44
2023-03-20T10:34:51.778Z,25.23
2023-03-20T10:37:49.432Z,25.43
2023-03-20T10:40:38.332Z,25.48
2023-03-20T10:43:23.389Z,25.39
2023-03-20T10:46:06.938Z,25.44
2023-03-20T10:48:42.979Z,25.46
2023-03-20T10:51:20.729Z,25.24
2023-03-20T10:54:04.852Z,25.13
2023-03-20T10:56:41.274Z,25.57
2023-03-20T10:59:24.007Z,25.42
2023-03-20T11:01:54.777Z,25.57
2023-03-20T11:04:25.258Z,25.35
2023-03-20T11:07:21.364Z,25.48
2023-03-20T11:10:18.645Z,25.41
2023-03-20T11:12:51.558Z,25.55
2023-03-20T11:15:33.197Z,25.51
2023-03-20T11:18:06.634Z,25.11
2023-03-20T11:20:45.864Z,25.34
2023-03-20T11:23:23.352Z,24.79
2023-03-20T11:26:04.415Z,25.52
2023-03-20T11:28:50.006Z,25.22
2023-03-20T11:31:27.345Z,25.36
2023-03-20T11:34:21.333Z,25.65
2023-03-20T11:37:11.053Z,25.42
2023-03-20T11:39:54.838Z,25.32
2023-03-20T11:42:28.772Z,25.66
2023-03-20T11:45:17.078Z,25.80
2023-03-20T11:47:56.235Z,25.62
2023-03-20T11:50:38.257Z,25.81
2023-03-20T11:53:31.028Z,25.01
2023-03-20T11:56:08.859Z,25.20
2023-03-20T11:58:57.911Z,25.58
2023-03-20T12:01:30.274Z,25.75
2023-03-20T12:04:00.774Z,25.69
2023-03-20T12:07:14.280Z,25.55
2023-03-20T12:09:53.803Z,25.42
2023-03-20T12:12:29.959Z,25.67
2023-03-20T12:15:30.684Z,26.16
2023-03-20T12:18:25.404Z,25.95
2023-03-20T12:21:17.191Z,25.47
2023-03-20T12:24:12.269Z,25.61
2023-03-20T12:27:02.713Z,25.43
2023-03-20T12:29:45.196Z,25.93
2023-03-20T12:32:37.254Z,25.25
2023-03-20T12:35:15.426Z,25.84
2023-03-20T12:37:47.171Z,25.50
2023-03-20T12:40:23.444Z,25.29
2023-03-20T12:43:21.156Z,25.35
2023-03-20T12:46:26.007Z,25.34
2023-03-20T12:49:10.130Z,25.27
2023-03-20T12:51:59.130Z,25.80
2023-03-20T12:54:42.680Z,25.98
2023-03-20T12:57:30.039Z,25.95
2023-03-20T13:00:30.469Z,26.00
2023-03-20T13:03:06.751Z,24.83
2023-03-20T13:05:49.356Z,25.71
2023-03-20T13:08:39.744Z,25.66
2023-03-20T13:11:13.093Z,25.78
2023-03-20T13:13:51.734Z,25.64
2023-03-20T13:16:36.219Z,25.57
2023-03-20T13:19:29.739Z,25.88
2023-03-20T13:22:13.990Z,25.91
2023-03-20T13:24:56.804Z,25.98
2023-03-20T13:27:41.783Z,25.49
2023-03-20T13:30:37.331Z,25.73
2023-03-20T13:33:23.177Z,25.19
2023-03-20T13:36:10.884Z,26.07
2023-03-20T13:38:48.705Z,25.97
2023-03-20T13:41:20.101Z,25.35
2023-03-20T13:43:58.735Z,26.12
2023-03-20T13:46:43.083Z,25.57
2023-03-20T13:49:34.564Z,25.58
2023-03-20T13:52:11.953Z,25.96
2023-03-20T13:55:18.738Z,26.14
2023-03-20T13:58:09.440Z,26.16
2023-03-20T14:01:17.747Z,26.14
2023-03-20T14:03:48.962Z,25.83
2023-03-20T14:06:43.931Z,25.77
2023-03-20T14:09:32.251Z,25.22
2023-03-20T14:12:09.454Z,25.56
2023-03-20T14:14:52.790Z,25.68
2023-03-20T14:17:23.976Z,26.09
2023-03-20T14:19:56.138Z,25.73
2023-03-20T14:22:32.407Z,25.94
2023-03-20T14:25:10.154Z,25.78
2023-03-20T14:27:59.342Z,25.76
2023-03-20T14:30:38.666Z,25.42
2023-03-20T14:33:18.141Z,25.57
2023-03-20T14:36:05.277Z,25.29
2023-03-20T14:38:57.760Z,25.76
2023-03-20T14:42:03.504Z,25.88
2023-03-20T14:45:08.384Z,26.08
2023-03-20T14:47:44.915Z,26.04
2023-03-20T14:50:25.597Z,26.27
2023-03-20T14:53:28.110Z,26.10
2023-03-20T14:55:58.443Z,25.33
2023-03-20T14:58:59.291Z,26.57
2023-03-20T15:01:46.415Z,26.03
2023-03-20T15:04:38.379Z,26.33
2023-03-20T15:07:32.473Z,26.16
2023-03-20T15:10:04.901Z,26.58
2023-03-20T15:12:40.894Z,25.57
2023-03-20T15:15:27.783Z,25.73
2023-03-20T15:17:58.447Z,25.79
2023-03-20T15:20:33.398Z,25.70
2023-03-20T15:23:06.454Z,25.85
2023-03-20T15:25:36.260Z,26.44
2023-03-20T15:28:11.369Z,26.11
2023-03-20T15:30:43.256Z,26.54
2023-03-20T15:33:21.646Z,25.82
2023-03-20T15:35:53.482Z,26.44
2023-03-20T15:38:24.563Z,25.93
2023-03-20T15:40:55.188Z,26.33
2023-03-20T15:43:28.144Z,26.79
2023-03-20T15:46:16.781Z,26.46
2023-03-20T15:48:52.254Z,26.19
2023-03-20T15:51:28.230Z,26.75
2023-03-20T15:53:58.770Z,25.95
2023-03-20T15:56:29.857Z,26.50
2023-03-20T15:59:00.550Z,26.48
2023-03-20T16:01:34.815Z,26.04
2023-03-20T16:04:06.520Z,26.42
2023-03-20T16:06:37.144Z,26.01
2023-03-20T16:09:10.821Z,25.90
2023-03-20T16:11:43.604Z,26.00
2023-03-20T16:14:22.154Z,26.17
2023-03-20T16:16:55.459Z,26.61
2023-03-20T16:19:28.649Z,26.57
2023-03-20T16:22:04.501Z,26.41
2023-03-20T16:24:40.923Z,26.69
2023-03-20T16:27:12.535Z,26.71
2023-03-20T16:29:45.911Z,26.79
2023-03-20T16:32:40.343Z,26.58
2023-03-20T16:35:23.428Z,26.96
2023-03-20T16:37:59.423Z,26.56
2023-03-20T16:40:40.083Z,25.93
2023-03-20T16:43:21.624Z,26.67
2023-03-20T16:45:57.494Z,26.65
2023-03-20T16:48:35.867Z,26.83
2023-03-20T16:51:38.278Z,26.74
2023-03-20T16:54:30.399Z,26.29
2023-03-20T16:57:02.130Z,26.32
2023-03-20T16:59:32.868Z,26.61
2023-03-20T17:02:03.446Z,26.79
2023-03-20T17:04:41.563Z,26.99
2023-03-20T17:07:29.435Z,26.92
2023-03-20T17:10:18.281Z,26.56
2023-03-20T17:12:51.936Z,26.19
2023-03-20T17:15:26.398Z,26.53
2023-03-20T17:17:56.750Z,26.77
2023-03-20T17:20:33.545Z,26.55
2023-03-20T17:23:05.067Z,27.03
2023-03-20T17:25:35.565Z,26.42
2023-03-20T17:28:06.083Z,26.13
2023-03-20T17:30:36.965Z,26.74
2023-03-20T17:33:15.448Z,26.37
2023-03-20T17:35:46.460Z,26.57
2023-03-20T17:38:23.091Z,26.91
2023-03-20T17:40:55.205Z,26.04
2023-03-20T17:43:27.286Z,26.20
2023-03-20T17:45:57.700Z,26.42
2023-03-20T17:48:28.516Z,26.38
2023-03-20T17:50:59.792Z,26.02
2023-03-20T17:53:32.500Z,26.81
2023-03-20T17:56:03.578Z,26.79
2023-03-20T17:58:33.884Z,27.21
2023-03-20T18:01:05.351Z,26.44
2023-03-20T18:03:35.756Z,26.42
2023-03-20T18:06:08.061Z,26.08
2023-03-20T18:08:40.421Z,25.96
2023-03-20T18:11:11.462Z,27.00
2023-03-20T18:13:42.311Z,26.07
2023-03-20T18:16:25.606Z,26.14
2023-03-20T18:18:58.485Z,27.01
2023-03-20T18:21:29.072Z,26.01
2023-03-20T18:23:59.317Z,27.11
2023-03-20T18:26:30.169Z,27.13
2023-03-20T18:29:00.887Z,27.04
2023-03-20T18:31:31.364Z,27.42
2023-03-20T18:34:01.852Z,26.80
2023-03-20T18:36:32.976Z,26.28
2023-03-20T18:39:05.725Z,26.49
2023-03-20T18:41:36.510Z,27.07
2023-03-20T18:44:06.806Z,26.21
2023-03-20T18:46:38.079Z,26.67
2023-03-20T18:49:08.647Z,27.07
2023-03-20T18:51:39.011Z,26.45
2023-03-20T18:54:09.964Z,26.32
2023-03-20T18:56:40.417Z,27.32
2023-03-20T18:59:14.600Z,26.83
2023-03-20T19:01:45.444Z,27.13
2023-03-20T19:04:15.975Z,26.24
2023-03-20T19:06:46.353Z,26.10
2023-03-20T19:09:18.759Z,27.23
2023-03-20T19:11:50.765Z,25.78
2023-03-20T19:14:21.104Z,26.99
2023-03-20T19:16:52.751Z,25.92
2023-03-20T19:19:23.872Z,26.05
2023-03-20T19:21:54.766Z,26.28
2023-03-20T19:24:25.602Z,26.21
2023-03-20T19:26:58.536Z,26.38
2023-03-20T19:29:28.876Z,26.38
2023-03-20T19:32:01.369Z,26.60
2023-03-20T19:35:23.069Z,26.00
2023-03-20T19:37:22.390Z,26.05
2023-03-20T19:39:53.037Z,25.79
2023-03-20T19:42:52.944Z,27.02
2023-03-20T19:45:14.686Z,27.02
2023-03-20T19:47:44.994Z,25.85
2023-03-20T19:50:41.248Z,26.62
2023-03-20T19:53:14.935Z,27.35
2023-03-20T19:55:45.522Z,25.99
2023-03-20T19:58:16.166Z,26.52
2023-03-20T20:00:57.237Z,26.02
2023-03-20T20:03:29.242Z,26.31
2023-03-20T20:06:01.946Z,26.44
2023-03-20T20:08:45.227Z,26.09
2023-03-20T20:11:20.593Z,27.10
2023-03-20T20:14:06.799Z,27.38
2023-03-20T20:16:41.040Z,25.84
2023-03-20T20:19:11.480Z,26.65
2023-03-20T20:24:32.480Z,26.61
2023-03-20T20:27:16.231Z,26.44
2023-03-20T20:29:53.526Z,27.15
2023-03-20T20:32:28.333Z,26.48
2023-03-20T20:35:40.605Z,26.14
2023-03-20T20:40:41.049Z,27.42
2023-03-20T20:43:22.270Z,27.26
2023-03-20T20:46:03.657Z,27.55
2023-03-20T20:48:34.075Z,27.49
2023-03-20T20:51:04.979Z,27.26
2023-03-20T20:53:35.382Z,27.55
2023-03-20T20:56:06.078Z,26.13
2023-03-20T20:58:36.441Z,27.69
2023-03-20T21:01:07.176Z,26.98
2023-03-20T21:03:38.297Z,27.47
2023-03-20T21:06:09.136Z,26.57
2023-03-20T21:08:39.955Z,26.54
2023-03-20T21:11:10.381Z,26.28
2023-03-20T21:13:41.008Z,26.42
2023-03-20T21:16:11.908Z,26.73
2023-03-20T21:18:43.307Z,27.19
2023-03-20T21:21:15.808Z,26.69
2023-03-20T21:23:46.446Z,26.68
2023-03-20T21:26:16.893Z,26.63
2023-03-20T21:28:47.342Z,26.69
2023-03-20T21:31:28.060Z,26.80
2023-03-20T21:34:01.033Z,26.26
2023-03-20T21:36:31.756Z,26.70
2023-03-20T21:39:08.616Z,26.70
2023-03-20T21:41:41.110Z,26.66
2023-03-20T21:44:17.035Z,26.62
2023-03-20T21:53:12.088Z,26.16
2023-03-20T21:56:17.038Z,26.35
2023-03-20T22:18:59.954Z,26.20
2023-03-20T22:27:35.171Z,27.27
2023-03-20T22:46:45.485Z,26.84
2023-03-20T22:49:17.286Z,27.32
2023-03-20T22:52:07.877Z,27.56
2023-03-20T22:54:39.101Z,27.99
2023-03-20T22:57:09.492Z,27.71
2023-03-20T22:59:39.987Z,28.09
2023-03-20T23:02:10.856Z,26.99
2023-03-20T23:04:41.298Z,27.71
2023-03-20T23:07:12.005Z,27.34
2023-03-20T23:09:42.412Z,27.46
2023-03-20T23:12:13.358Z,27.25
2023-03-20T23:14:46.167Z,27.89
2023-03-20T23:17:16.809Z,27.37
2023-03-20T23:19:52.180Z,26.92
2023-03-20T23:22:27.078Z,28.05
2023-03-20T23:25:02.903Z,28.42
2023-03-20T23:27:40.420Z,27.31
2023-03-20T23:30:12.573Z,27.74
2023-03-20T23:32:43.539Z,27.23
2023-03-20T23:35:14.578Z,27.45
2023-03-20T23:37:45.033Z,27.11
2023-03-20T23:40:15.858Z,27.65
2023-03-20T23:42:46.225Z,28.18
2023-03-20T23:48:08.239Z,27.40
2023-03-20T23:50:51.822Z,28.39
2023-03-20T23:53:24.091Z,27.40
2023-03-20T23:55:58.747Z,27.84
2023-03-20T23:58:29.977Z,28.15
